Time;durP1;ratioP1;P1;durP2;ratioP2;P2;SDS_P1;SDS_P2;PMS_P1;PMS_P2;Temp;Humidity;BMP_temperature;BMP_pressure;BME280_temperature;BME280_humidity;BME280_pressure;Samples;Min_cycle;Max_cycle;Signal;HPM_P1;HPM_P2
2023/04/12 00:01:49;;;;;;;9.35;6.57;;;;;;;9.38;89.01;100419.19;5086971;28;20026;-57
2023/04/12 00:04:15;;;;;;;12.07;7.25;;;;;;;9.34;88.87;100415.03;5107230;28;20031;-57
2023/04/12 00:06:47;;;;;;;8.57;6.88;;;;;;;9.32;88.40;100407.19;5123092;27;20478;-57
2023/04/12 00:09:15;;;;;;;8.30;6.68;;;;;;;9.27;89.08;100403.13;5105613;27;20092;-57
2023/04/12 00:11:40;;;;;;;10.70;7.30;;;;;;;9.31;89.46;100400.16;5104097;28;20020;-57
2023/04/12 00:14:06;;;;;;;8.88;6.10;;;;;;;9.29;89.64;100390.59;5106994;28;20022;-57
2023/04/12 00:16:31;;;;;;;9.40;6.32;;;;;;;9.27;90.66;100376.59;5101309;28;20437;-57
2023/04/12 00:18:57;;;;;;;10.07;6.80;;;;;;;9.20;90.24;100386.75;5095300;28;20051;-57
2023/04/12 00:21:23;;;;;;;9.75;6.75;;;;;;;9.16;90.20;100385.25;5112986;28;20059;-57
2023/04/12 00:23:49;;;;;;;8.90;6.90;;;;;;;9.09;90.22;100357.44;5090417;28;20019;-57
2023/04/12 00:26:14;;;;;;;8.02;6.47;;;;;;;9.11;90.63;100363.47;5091761;28;20436;-57
2023/04/12 00:28:44;;;;;;;9.05;6.55;;;;;;;9.08;90.85;100340.63;5092046;28;20020;-57
2023/04/12 00:31:12;;;;;;;8.63;5.20;;;;;;;8.91;90.89;100324.09;5110072;28;20099;-57
2023/04/12 00:33:37;;;;;;;9.70;6.30;;;;;;;9.00;90.55;100328.81;5080048;28;20043;-57
2023/04/12 00:36:03;;;;;;;8.57;6.50;;;;;;;9.09;90.90;100328.25;5109912;28;20108;-57
2023/04/12 00:38:29;;;;;;;11.02;7.15;;;;;;;8.99;91.70;100313.84;5087386;28;20501;-57
2023/04/12 00:40:54;;;;;;;8.02;6.07;;;;;;;9.01;90.89;100301.38;5113155;28;20023;-57
2023/04/12 00:43:20;;;;;;;10.20;6.65;;;;;;;9.00;91.89;100300.50;5086388;28;20459;-57
2023/04/12 00:45:46;;;;;;;7.63;6.60;;;;;;;9.02;92.59;100292.44;5086550;28;20035;-57
2023/04/12 00:48:12;;;;;;;7.63;6.93;;;;;;;9.06;92.63;100289.50;5124120;28;20076;-57
2023/04/12 00:50:43;;;;;;;8.52;6.90;;;;;;;8.99;91.86;100290.84;5076083;28;20042;-57
2023/04/12 00:53:12;;;;;;;9.85;6.55;;;;;;;8.86;91.79;100277.53;5101387;28;20036;-57
2023/04/12 00:55:40;;;;;;;11.35;7.20;;;;;;;8.95;92.41;100264.63;5073628;28;20027;-57
2023/04/12 00:58:06;;;;;;;9.68;6.90;;;;;;;8.91;92.15;100263.13;5108877;28;20482;-57
2023/04/12 01:00:33;;;;;;;7.97;6.55;;;;;;;8.93;92.77;100247.97;5110179;28;20371;-57
2023/04/12 01:03:01;;;;;;;9.40;7.03;;;;;;;8.81;91.91;100223.94;5111051;28;20031;-57
2023/04/12 01:05:28;;;;;;;9.68;6.57;;;;;;;8.87;92.61;100228.84;5097573;28;20024;-57
2023/04/12 01:08:04;;;;;;;9.88;6.93;;;;;;;8.91;92.54;100229.47;5091341;28;20035;-57
2023/04/12 01:10:39;;;;;;;7.82;6.93;;;;;;;8.76;92.44;100217.25;5103115;28;20474;-57
2023/04/12 01:13:11;;;;;;;8.55;6.28;;;;;;;8.76;92.42;100217.25;5103961;28;20054;-57
2023/04/12 01:15:42;;;;;;;10.35;6.97;;;;;;;8.79;93.15;100203.78;5131305;28;20033;-58
2023/04/12 01:18:15;;;;;;;10.75;6.93;;;;;;;8.84;93.12;100199.03;5132738;28;20027;-58
2023/04/12 01:20:53;;;;;;;9.32;6.80;;;;;;;8.67;93.46;100178.94;5132484;28;20019;-58
2023/04/12 01:23:34;;;;;;;10.57;7.00;;;;;;;8.92;92.82;100174.66;5110268;28;20035;-57
2023/04/12 01:26:33;;;;;;;9.57;7.20;;;;;;;8.89;93.31;100173.06;5113827;28;20046;-58
2023/04/12 01:29:03;;;;;;;9.25;7.28;;;;;;;8.83;93.29;100162.88;5132370;28;20110;-58
2023/04/12 01:31:31;;;;;;;8.32;6.22;;;;;;;8.63;93.32;100143.81;5131960;27;20499;-57
2023/04/12 01:34:00;;;;;;;10.90;6.85;;;;;;;8.68;93.88;100143.53;5115786;27;20482;-58
2023/04/12 01:36:27;;;;;;;10.27;6.90;;;;;;;8.63;94.42;100135.03;5117258;27;20019;-58
2023/04/12 01:38:53;;;;;;;12.50;7.07;;;;;;;8.70;94.53;100141.63;5135806;27;20037;-58
2023/04/12 01:41:19;;;;;;;10.20;7.00;;;;;;;8.66;94.38;100115.44;5100521;28;20027;-58
2023/04/12 01:43:46;;;;;;;9.45;7.15;;;;;;;8.70;94.14;100120.41;5112255;27;20077;-57
2023/04/12 01:46:15;;;;;;;12.40;7.63;;;;;;;8.72;93.89;100118.50;5089555;28;20039;-58
2023/04/12 01:48:52;;;;;;;9.38;7.15;;;;;;;8.62;94.25;100112.97;5092337;28;20032;-58
2023/04/12 01:51:33;;;;;;;12.13;7.05;;;;;;;8.75;94.05;100120.09;5104697;28;20052;-58
2023/04/12 01:54:01;;;;;;;11.65;6.90;;;;;;;8.74;93.85;100113.13;5061568;28;20037;-57
2023/04/12 01:56:33;;;;;;;8.77;6.35;;;;;;;8.75;94.01;100098.91;5107888;28;20384;-58
2023/04/12 01:59:00;;;;;;;7.97;7.18;;;;;;;8.69;93.54;100083.41;5052598;28;20033;-57
2023/04/12 02:01:27;;;;;;;12.35;6.95;;;;;;;8.69;93.39;100081.59;5066934;28;20047;-57
2023/04/12 02:03:55;;;;;;;10.43;6.57;;;;;;;8.57;93.64;100064.72;5057893;28;20016;-58
2023/04/12 02:06:21;;;;;;;11.50;7.05;;;;;;;8.57;94.48;100062.06;5074945;28;20032;-57
2023/04/12 02:08:47;;;;;;;9.50;6.53;;;;;;;8.59;94.54;100057.53;5073989;28;20029;-57
2023/04/12 02:11:13;;;;;;;8.95;6.45;;;;;;;8.57;94.73;100055.94;5073751;28;20536;-57
2023/04/12 02:13:39;;;;;;;9.45;7.07;;;;;;;8.53;94.47;100054.41;5073815;28;20020;-57
2023/04/12 02:16:06;;;;;;;8.50;6.03;;;;;;;8.51;94.48;100043.09;5074204;28;20028;-57
2023/04/12 02:18:34;;;;;;;8.50;6.28;;;;;;;8.59;94.05;100028.38;5072612;28;20430;-57
2023/04/12 02:21:00;;;;;;;10.48;6.50;;;;;;;8.53;95.07;100004.06;5074627;28;20016;-58
2023/04/12 02:23:25;;;;;;;9.15;6.60;;;;;;;8.54;93.96;100011.94;5071291;28;20491;-57
2023/04/12 02:25:51;;;;;;;9.45;7.03;;;;;;;8.62;94.57;100006.13;5074460;28;20036;-57
2023/04/12 02:28:16;;;;;;;9.18;6.90;;;;;;;8.59;93.96;100006.31;5068004;28;20028;-58
2023/04/12 02:30:42;;;;;;;6.13;5.55;;;;;;;8.54;94.39;100008.44;5073147;28;20024;-58
2023/04/12 02:33:08;;;;;;;9.13;6.65;;;;;;;8.45;94.86;100001.97;5051941;28;20025;-57
2023/04/12 02:35:35;;;;;;;7.80;6.55;;;;;;;8.39;94.94;99986.47;5066989;28;20391;-58
2023/04/12 02:38:02;;;;;;;7.57;6.78;;;;;;;8.41;96.53;99980.13;5086489;28;20035;-58
2023/04/12 02:40:28;;;;;;;7.13;6.13;;;;;;;8.35;94.85;99972.56;5059873;28;20072;-58
2023/04/12 02:42:57;;;;;;;8.07;6.65;;;;;;;8.37;95.24;99951.25;5050665;28;20040;-58
2023/04/12 02:45:22;;;;;;;8.15;6.22;;;;;;;8.37;95.26;99946.78;5050840;28;20078;-57
2023/04/12 02:47:48;;;;;;;7.43;6.72;;;;;;;8.43;94.77;99942.06;5064180;28;20383;-57
2023/04/12 02:50:15;;;;;;;6.90;6.30;;;;;;;8.43;94.45;99934.97;5070299;28;20467;-57
2023/04/12 02:52:41;;;;;;;7.05;6.43;;;;;;;8.45;94.63;99929.56;5089815;28;20114;-57
2023/04/12 02:55:07;;;;;;;6.93;6.10;;;;;;;8.41;94.49;99921.84;5093408;28;20166;-57
2023/04/12 02:57:34;;;;;;;9.50;6.75;;;;;;;8.38;94.83;99924.69;5102472;27;20028;-57
2023/04/12 03:00:00;;;;;;;8.25;6.25;;;;;;;8.40;95.05;99913.97;5090808;28;20070;-57
2023/04/12 03:02:26;;;;;;;6.88;6.25;;;;;;;8.45;94.89;99911.03;5092585;28;20064;-57
2023/04/12 03:04:52;;;;;;;6.40;5.88;;;;;;;8.40;94.82;99906.03;5106079;28;20031;-57
2023/04/12 03:07:18;;;;;;;10.27;6.22;;;;;;;8.46;95.55;99895.00;5112132;28;20032;-57
2023/04/12 03:09:45;;;;;;;6.65;6.03;;;;;;;8.43;96.17;99889.91;5111107;28;20033;-57
2023/04/12 03:12:10;;;;;;;6.78;6.18;;;;;;;8.44;95.79;99888.94;5108699;28;20039;-57
2023/04/12 03:14:36;;;;;;;9.73;6.05;;;;;;;8.38;95.27;99866.41;5112484;28;20020;-57
2023/04/12 03:17:03;;;;;;;6.78;6.15;;;;;;;8.41;96.50;99860.91;5076863;28;20463;-57
2023/04/12 03:19:31;;;;;;;6.68;5.97;;;;;;;8.32;96.46;99861.47;5100544;27;20398;-57
2023/04/12 03:21:58;;;;;;;9.45;6.63;;;;;;;8.35;96.44;99865.72;5112527;28;20030;-57
2023/04/12 03:24:25;;;;;;;8.60;5.65;;;;;;;8.25;97.83;99857.56;5104475;28;20024;-57
2023/04/12 03:26:51;;;;;;;6.85;6.18;;;;;;;8.25;97.77;99867.31;5095806;28;20371;-57
2023/04/12 03:29:17;;;;;;;6.82;6.25;;;;;;;8.28;98.59;99856.50;5110914;28;20037;-57
2023/04/12 03:31:42;;;;;;;7.85;6.30;;;;;;;8.26;98.23;99858.41;5110555;27;20682;-57
2023/04/12 03:34:08;;;;;;;6.25;5.65;;;;;;;8.25;98.00;99865.53;5078013;28;20485;-57
2023/04/12 03:36:33;;;;;;;8.30;5.82;;;;;;;8.23;97.92;99842.72;5111301;28;20055;-57
2023/04/12 03:38:59;;;;;;;7.05;6.20;;;;;;;8.17;98.87;99821.00;5099436;28;20458;-57
2023/04/12 03:41:25;;;;;;;9.82;6.45;;;;;;;8.27;98.73;99842.44;5091104;28;20034;-57
2023/04/12 03:43:50;;;;;;;7.40;6.70;;;;;;;8.24;98.71;99833.84;5093049;28;20020;-57
2023/04/12 03:46:16;;;;;;;7.53;6.13;;;;;;;8.20;99.07;99807.56;5101072;27;20389;-57
2023/04/12 03:48:42;;;;;;;6.85;6.25;;;;;;;8.27;99.10;99826.53;5123052;27;20095;-57
2023/04/12 03:51:11;;;;;;;6.88;6.20;;;;;;;8.27;98.95;99809.78;5101417;28;20135;-57
2023/04/12 03:53:40;;;;;;;7.63;6.93;;;;;;;8.24;98.86;99805.56;5091270;28;20024;-57
2023/04/12 03:56:06;;;;;;;6.85;6.25;;;;;;;8.17;99.11;99807.75;5104800;28;20028;-57
2023/04/12 03:58:34;;;;;;;7.05;6.35;;;;;;;8.22;99.69;99799.50;5111405;28;20036;-57
2023/04/12 04:01:06;;;;;;;6.40;5.97;;;;;;;8.19;99.75;99797.06;5105208;28;20485;-57
2023/04/12 04:03:33;;;;;;;6.43;5.93;;;;;;;8.18;99.93;99793.59;5109759;28;20389;-57
2023/04/12 04:06:00;;;;;;;6.72;6.15;;;;;;;8.12;100.00;99772.84;5079609;28;20106;-57
2023/04/12 04:08:27;;;;;;;6.32;5.75;;;;;;;8.16;100.00;99781.41;5107398;28;20505;-57
2023/04/12 04:10:52;;;;;;;7.47;5.80;;;;;;;8.11;100.00;99784.38;5101594;28;20386;-57
2023/04/12 04:13:18;;;;;;;7.07;6.50;;;;;;;8.11;100.00;99763.19;5097658;28;20038;-57
2023/04/12 04:15:43;;;;;;;6.80;6.10;;;;;;;8.11;100.00;99768.47;5090463;28;20383;-57
2023/04/12 04:18:09;;;;;;;8.43;6.32;;;;;;;8.09;100.00;99774.81;5111615;28;20517;-57
2023/04/12 04:20:34;;;;;;;7.10;6.40;;;;;;;8.12;100.00;99759.59;5084008;28;20114;-57
2023/04/12 04:23:00;;;;;;;6.25;5.68;;;;;;;8.09;100.00;99756.28;5080447;28;20023;-57
2023/04/12 04:25:32;;;;;;;6.03;5.53;;;;;;;8.08;100.00;99738.72;5079413;28;20494;-61
2023/04/12 04:27:58;;;;;;;6.53;5.90;;;;;;;8.08;100.00;99746.66;5094921;28;20068;-57
2023/04/12 04:30:25;;;;;;;6.63;6.13;;;;;;;8.10;100.00;99750.91;5104008;28;20024;-57
2023/04/12 04:32:53;;;;;;;6.53;6.13;;;;;;;8.12;100.00;99746.34;5103774;28;20082;-57
2023/04/12 04:35:19;;;;;;;6.80;6.13;;;;;;;8.01;100.00;99727.72;5110124;28;20076;-57
2023/04/12 04:37:44;;;;;;;7.38;6.57;;;;;;;8.05;100.00;99734.47;5110081;28;20027;-57
2023/04/12 04:40:10;;;;;;;7.32;6.63;;;;;;;8.09;100.00;99729.81;5111937;28;20515;-57
2023/04/12 04:42:38;;;;;;;6.65;6.15;;;;;;;8.11;100.00;99728.75;5107879;28;20091;-57
2023/04/12 04:45:12;;;;;;;7.13;6.43;;;;;;;8.01;100.00;99724.22;5112019;28;20027;-57
2023/04/12 04:47:40;;;;;;;6.88;6.25;;;;;;;8.17;100.00;99725.66;5111707;28;20046;-57
2023/04/12 04:50:06;;;;;;;7.40;6.80;;;;;;;7.91;100.00;99700.19;5096379;28;20031;-57
2023/04/12 04:52:32;;;;;;;6.68;6.25;;;;;;;8.12;100.00;99730.47;5107672;28;20428;-57
2023/04/12 04:54:57;;;;;;;7.07;6.38;;;;;;;8.12;100.00;99719.03;5110976;28;20081;-57
2023/04/12 04:57:25;;;;;;;7.50;6.80;;;;;;;8.12;100.00;99722.53;5109956;28;20110;-57
2023/04/12 04:59:50;;;;;;;7.05;6.55;;;;;;;8.15;100.00;99721.47;5094675;28;20028;-57
2023/04/12 05:02:16;;;;;;;7.28;6.55;;;;;;;8.19;100.00;99721.13;5109632;28;20084;-57
2023/04/12 05:04:41;;;;;;;6.70;6.28;;;;;;;8.21;100.00;99723.66;5075949;28;20028;-57
2023/04/12 05:07:07;;;;;;;7.45;6.72;;;;;;;8.16;100.00;99718.69;5075661;28;20123;-57
2023/04/12 05:09:32;;;;;;;6.65;6.10;;;;;;;8.18;100.00;99708.84;5077540;28;20028;-57
2023/04/12 05:11:57;;;;;;;7.50;6.88;;;;;;;8.18;100.00;99706.19;5113718;28;20041;-57
2023/04/12 05:14:23;;;;;;;7.90;6.80;;;;;;;8.16;100.00;99708.09;5115478;28;20069;-57
2023/04/12 05:16:48;;;;;;;6.78;6.18;;;;;;;8.16;100.00;99716.03;5092720;28;20390;-57
2023/04/12 05:19:14;;;;;;;8.85;6.85;;;;;;;8.15;100.00;99702.91;5115396;28;20467;-57
2023/04/12 05:21:39;;;;;;;7.57;6.78;;;;;;;8.23;100.00;99697.06;5082542;28;20039;-57
2023/04/12 05:24:05;;;;;;;6.85;6.25;;;;;;;8.20;100.00;99688.38;5097286;28;20027;-57
2023/04/12 05:26:31;;;;;;;7.70;6.95;;;;;;;8.23;100.00;99700.53;5114097;28;20032;-57
2023/04/12 05:28:57;;;;;;;6.90;6.20;;;;;;;8.27;100.00;99706.50;5113862;28;20114;-57
2023/04/12 05:31:23;;;;;;;6.97;6.35;;;;;;;8.36;100.00;99711.97;5088644;28;20115;-57
2023/04/12 05:33:48;;;;;;;9.15;6.95;;;;;;;8.25;100.00;99700.44;5095650;28;20035;-57
2023/04/12 05:36:14;;;;;;;7.57;7.00;;;;;;;8.23;100.00;99694.41;5113601;28;20027;-57
2023/04/12 05:38:39;;;;;;;7.50;6.80;;;;;;;8.22;100.00;99695.38;5115492;28;20032;-57
2023/04/12 05:41:05;;;;;;;7.78;6.97;;;;;;;8.23;100.00;99682.00;5111695;28;20031;-57
2023/04/12 05:43:31;;;;;;;6.95;6.32;;;;;;;8.25;100.00;99687.22;5087218;28;20030;-57
2023/04/12 05:45:57;;;;;;;8.13;6.60;;;;;;;8.30;100.00;99685.06;5105503;28;20394;-57
2023/04/12 05:48:22;;;;;;;7.85;7.05;;;;;;;8.38;100.00;99694.19;5096518;28;20037;-57
2023/04/12 05:50:52;;;;;;;7.13;6.53;;;;;;;8.36;100.00;99701.38;5114258;28;20063;-57
2023/04/12 05:53:17;;;;;;;6.57;6.07;;;;;;;8.32;100.00;99689.28;5097658;28;20109;-57
2023/04/12 05:55:43;;;;;;;7.50;6.88;;;;;;;8.35;100.00;99689.09;5089431;28;20028;-58
2023/04/12 05:58:09;;;;;;;7.80;7.03;;;;;;;8.34;100.00;99686.53;5112005;28;20023;-58
2023/04/12 06:00:35;;;;;;;7.82;7.13;;;;;;;8.31;100.00;99694.72;5099552;28;20142;-57
2023/04/12 06:03:00;;;;;;;7.40;6.70;;;;;;;8.29;100.00;99694.81;5104720;28;20019;-57
2023/04/12 06:05:26;;;;;;;8.25;6.18;;;;;;;8.31;100.00;99690.25;5075785;28;20494;-57
2023/04/12 06:07:51;;;;;;;8.95;6.60;;;;;;;8.35;100.00;99682.91;5101310;28;20024;-58
2023/04/12 06:10:17;;;;;;;7.75;7.15;;;;;;;8.33;100.00;99679.56;5092218;28;20028;-57
2023/04/12 06:12:42;;;;;;;7.55;6.93;;;;;;;8.30;100.00;99677.97;5112522;28;20039;-57
2023/04/12 06:15:08;;;;;;;8.85;7.22;;;;;;;8.27;100.00;99677.34;5080009;28;20031;-57
2023/04/12 06:17:35;;;;;;;6.38;5.97;;;;;;;8.30;100.00;99666.53;5075195;28;20394;-57
2023/04/12 06:20:00;;;;;;;7.07;6.47;;;;;;;8.37;100.00;99681.84;5101498;28;20055;-57
2023/04/12 06:22:26;;;;;;;7.55;6.75;;;;;;;8.35;100.00;99680.28;5108513;28;20062;-57
2023/04/12 06:24:51;;;;;;;7.43;6.82;;;;;;;8.40;100.00;99680.81;5113313;28;20027;-57
2023/04/12 06:27:17;;;;;;;7.55;6.97;;;;;;;8.39;100.00;99664.09;5087043;28;20559;-57
2023/04/12 06:29:42;;;;;;;7.93;7.22;;;;;;;8.49;100.00;99671.34;5096062;28;20020;-57
2023/04/12 06:32:08;;;;;;;7.43;6.78;;;;;;;8.49;100.00;99669.53;5095526;28;20031;-57
2023/04/12 06:34:33;;;;;;;8.15;7.45;;;;;;;8.45;100.00;99670.75;5111628;28;20040;-56
2023/04/12 06:36:59;;;;;;;8.35;7.50;;;;;;;8.44;100.00;99657.59;5093570;28;20471;-57
2023/04/12 06:39:24;;;;;;;7.68;7.10;;;;;;;8.48;100.00;99674.97;5075455;28;20047;-57
2023/04/12 06:41:50;;;;;;;8.52;7.82;;;;;;;8.50;100.00;99676.56;5080959;28;20080;-57
2023/04/12 06:44:15;;;;;;;8.13;7.43;;;;;;;8.49;100.00;99669.53;5091118;28;20026;-57
2023/04/12 06:46:41;;;;;;;8.68;7.97;;;;;;;8.51;100.00;99669.44;5107182;28;20035;-57
2023/04/12 06:49:06;;;;;;;8.45;7.82;;;;;;;8.51;100.00;99672.94;5089553;27;20015;-57
2023/04/12 06:51:34;;;;;;;8.10;7.50;;;;;;;8.52;100.00;99684.38;5083420;28;20130;-57
2023/04/12 06:53:59;;;;;;;8.70;7.90;;;;;;;8.51;100.00;99670.28;5112118;27;20024;-57
2023/04/12 06:56:27;;;;;;;8.30;7.55;;;;;;;8.45;100.00;99657.50;5069712;28;20035;-57
2023/04/12 06:58:52;;;;;;;8.18;7.38;;;;;;;8.55;100.00;99677.03;5111442;28;20024;-57
2023/04/12 07:01:18;;;;;;;8.50;7.80;;;;;;;8.55;100.00;99677.03;5112555;27;20084;-57
2023/04/12 07:03:43;;;;;;;8.80;8.00;;;;;;;8.57;100.00;99676.94;5115437;27;20430;-57
2023/04/12 07:06:11;;;;;;;8.20;7.60;;;;;;;8.54;100.00;99666.56;5099754;28;20477;-57
2023/04/12 07:08:36;;;;;;;8.77;7.80;;;;;;;8.63;100.00;99674.69;5110986;28;20028;-57
2023/04/12 07:11:03;;;;;;;8.88;8.07;;;;;;;8.64;100.00;99679.00;5088048;28;20020;-57
2023/04/12 07:13:29;;;;;;;8.68;7.93;;;;;;;8.60;100.00;99666.97;5112431;28;20482;-57
2023/04/12 07:15:54;;;;;;;8.90;7.97;;;;;;;8.71;100.00;99681.22;5113059;27;20043;-57
2023/04/12 07:18:20;;;;;;;9.38;8.50;;;;;;;8.75;100.00;99674.72;5088364;28;20142;-57
2023/04/12 07:20:52;;;;;;;8.55;7.75;;;;;;;8.89;100.00;99676.38;5090033;28;20023;-57
2023/04/12 07:23:17;;;;;;;8.75;7.68;;;;;;;8.90;100.00;99676.22;5095179;27;20016;-57
2023/04/12 07:25:43;;;;;;;9.25;8.45;;;;;;;8.92;100.00;99670.84;5094894;28;20394;-58
2023/04/12 07:28:08;;;;;;;10.15;8.52;;;;;;;9.01;100.00;99672.78;5113169;28;20076;-58
2023/04/12 07:30:33;;;;;;;9.48;8.15;;;;;;;9.02;100.00;99677.97;5093877;28;20577;-57
2023/04/12 07:33:04;;;;;;;8.60;7.72;;;;;;;8.99;100.00;99678.19;5112554;28;20032;-57
2023/04/12 07:35:30;;;;;;;10.38;7.90;;;;;;;9.02;100.00;99677.13;5130412;27;20041;-57
2023/04/12 07:37:56;;;;;;;8.95;8.10;;;;;;;8.99;100.00;99666.75;5115086;27;20011;-57
2023/04/12 07:40:21;;;;;;;10.23;8.10;;;;;;;9.00;100.00;99663.13;5133373;27;20075;-57
2023/04/12 07:42:46;;;;;;;14.80;7.75;;;;;;;9.09;100.00;99670.41;5133055;27;20487;-57
2023/04/12 07:45:12;;;;;;;8.90;8.00;;;;;;;9.10;100.00;99674.75;5103787;27;20019;-57
2023/04/12 07:47:38;;;;;;;11.93;7.97;;;;;;;9.04;100.00;99657.47;5099005;28;20460;-57
2023/04/12 07:50:07;;;;;;;9.25;7.72;;;;;;;9.11;100.00;99657.84;5122767;27;20118;-57
2023/04/12 07:52:32;;;;;;;10.57;8.48;;;;;;;9.11;100.00;99657.84;5094273;28;20043;-57
2023/04/12 07:55:00;;;;;;;9.02;8.10;;;;;;;9.14;100.00;99662.91;5127853;27;20462;-57
2023/04/12 07:57:26;;;;;;;8.70;7.80;;;;;;;9.12;100.00;99650.72;5108480;28;20110;-57
2023/04/12 07:59:51;;;;;;;10.30;8.18;;;;;;;9.21;100.00;99658.84;5082175;28;20045;-57
2023/04/12 08:02:23;;;;;;;11.38;8.40;;;;;;;9.10;100.00;99657.00;5105234;27;20463;-57
2023/04/12 08:04:49;;;;;;;10.50;8.82;;;;;;;9.13;100.00;99666.53;5132968;27;20027;-57
2023/04/12 08:07:15;;;;;;;12.35;9.05;;;;;;;9.13;100.00;99647.97;5132824;27;20160;-57
2023/04/12 08:09:40;;;;;;;10.70;9.60;;;;;;;9.26;100.00;99659.31;5088853;28;20494;-57
2023/04/12 08:12:06;;;;;;;10.95;8.55;;;;;;;9.32;100.00;99664.19;5110536;27;20023;-57
2023/04/12 08:14:34;;;;;;;10.30;9.15;;;;;;;9.33;100.00;99676.47;5116426;27;20100;-58
2023/04/12 08:16:59;;;;;;;10.52;9.35;;;;;;;9.38;100.00;99678.75;5110589;28;20023;-58
2023/04/12 08:19:25;;;;;;;12.00;8.82;;;;;;;9.37;100.00;99673.59;5109569;28;20031;-57
2023/04/12 08:21:55;;;;;;;11.55;8.85;;;;;;;9.38;100.00;99675.28;5098481;27;20412;-57
2023/04/12 08:24:20;;;;;;;15.05;8.52;;;;;;;9.40;100.00;99668.03;5116807;27;20024;-57
2023/04/12 08:26:46;;;;;;;16.55;10.63;;;;;;;9.61;100.00;99678.81;5115228;28;20089;-58
2023/04/12 08:29:14;;;;;;;15.68;10.57;;;;;;;9.63;100.00;99676.88;5112712;28;20398;-57
2023/04/12 08:31:40;;;;;;;15.68;10.20;;;;;;;9.67;100.00;99680.97;5103750;28;20098;-58
2023/04/12 08:34:09;;;;;;;11.20;9.52;;;;;;;9.74;100.00;99677.72;5090612;28;20107;-57
2023/04/12 08:36:34;;;;;;;16.23;10.38;;;;;;;9.70;100.00;99665.66;5111380;28;20028;-57
2023/04/12 08:39:00;;;;;;;13.05;11.20;;;;;;;9.91;100.00;99676.41;5092583;28;20027;-57
2023/04/12 08:41:26;;;;;;;13.77;11.77;;;;;;;9.88;100.00;99671.34;5102371;28;20031;-57
2023/04/12 08:43:54;;;;;;;16.20;11.68;;;;;;;9.91;100.00;99665.78;5113451;28;20031;-58
2023/04/12 08:46:19;;;;;;;13.55;11.65;;;;;;;10.00;100.00;99656.25;5114400;27;20027;-58
2023/04/12 08:48:49;;;;;;;14.10;10.27;;;;;;;10.08;100.00;99659.09;5093131;28;20030;-57
2023/04/12 08:51:17;;;;;;;13.70;11.00;;;;;;;10.24;100.00;99666.72;5097015;28;20122;-57
2023/04/12 08:53:43;;;;;;;12.52;10.75;;;;;;;10.20;98.63;99668.75;5115489;28;20076;-57
2023/04/12 08:56:13;;;;;;;17.02;11.63;;;;;;;10.40;100.00;99675.16;5114279;28;20035;-57
2023/04/12 08:58:47;;;;;;;12.35;10.32;;;;;;;10.46;99.72;99679.97;5112659;28;20031;-57
2023/04/12 09:01:17;;;;;;;16.67;11.13;;;;;;;10.51;98.44;99673.44;5112698;27;20042;-58
2023/04/12 09:03:44;;;;;;;14.57;10.63;;;;;;;10.73;99.22;99669.84;5106965;28;20462;-57
2023/04/12 09:06:13;;;;;;;16.25;10.43;;;;;;;10.81;96.54;99665.59;5111536;28;20043;-57
2023/04/12 09:08:55;;;;;;;17.65;11.15;;;;;;;10.92;94.62;99670.03;5120348;27;20397;-58
2023/04/12 09:11:23;;;;;;;15.75;10.10;;;;;;;10.80;95.97;99658.59;5114054;28;20028;-58
2023/04/12 09:13:48;;;;;;;14.63;10.38;;;;;;;10.67;94.36;99648.09;5111368;27;20026;-58
2023/04/12 09:16:14;;;;;;;19.60;10.40;;;;;;;10.61;96.12;99647.78;5101122;27;20469;-58
2023/04/12 09:18:50;;;;;;;20.75;10.40;;;;;;;10.73;99.28;99656.56;5117549;27;20095;-58
2023/04/12 09:21:15;;;;;;;17.33;11.98;;;;;;;10.67;95.68;99652.59;5113964;28;20085;-58
2023/04/12 09:23:41;;;;;;;22.73;12.75;;;;;;;11.03;95.78;99648.69;5114899;27;20475;-58
2023/04/12 09:26:07;;;;;;;22.73;13.35;;;;;;;11.25;96.71;99630.88;5079554;27;20040;-57
2023/04/12 09:28:34;;;;;;;25.05;13.85;;;;;;;11.87;98.37;99642.44;5096490;28;20116;-57
2023/04/12 09:31:02;;;;;;;24.55;12.90;;;;;;;12.18;93.16;99632.56;5096123;28;20084;-57
2023/04/12 09:33:36;;;;;;;20.60;12.38;;;;;;;12.33;87.24;99641.84;5114719;28;20474;-58
2023/04/12 09:36:12;;;;;;;22.73;11.50;;;;;;;12.07;82.89;99644.19;5109545;28;20040;-58
2023/04/12 09:38:41;;;;;;;19.45;12.30;;;;;;;11.88;85.67;99646.75;5096202;28;20092;-57
2023/04/12 09:41:29;;;;;;;25.08;12.48;;;;;;;11.80;87.13;99644.75;5096100;28;20055;-58
2023/04/12 09:43:57;;;;;;;27.92;12.38;;;;;;;11.65;87.87;99654.06;5114889;27;20016;-57
2023/04/12 09:46:24;;;;;;;23.52;12.10;;;;;;;11.63;87.61;99648.88;5114846;27;20032;-57
2023/04/12 09:48:55;;;;;;;24.00;12.60;;;;;;;11.49;86.29;99646.56;5096563;28;20019;-58
2023/04/12 09:51:27;;;;;;;29.30;11.63;;;;;;;11.53;87.00;99640.84;5093481;28;20458;-58
2023/04/12 09:54:04;;;;;;;26.50;11.15;;;;;;;11.51;83.42;99634.81;5095409;28;20059;-57
2023/04/12 09:56:32;;;;;;;26.92;12.15;;;;;;;11.47;85.94;99628.09;5088235;28;20039;-57
2023/04/12 09:59:03;;;;;;;26.23;12.25;;;;;;;11.42;84.07;99635.59;5112315;28;20041;-57
2023/04/12 10:01:36;;;;;;;23.00;11.07;;;;;;;11.47;82.20;99635.19;5112234;28;20034;-57
2023/04/12 10:04:02;;;;;;;23.27;10.32;;;;;;;11.52;81.30;99627.66;5120858;28;20015;-57
2023/04/12 10:06:28;;;;;;;26.23;10.68;;;;;;;11.58;84.62;99627.13;5103579;28;20023;-57
2023/04/12 10:08:55;;;;;;;23.75;11.88;;;;;;;11.45;83.91;99629.19;5091017;28;20062;-57
2023/04/12 10:11:20;;;;;;;21.02;10.95;;;;;;;11.40;81.26;99637.56;5110372;28;20019;-58
2023/04/12 10:13:47;;;;;;;28.10;11.55;;;;;;;11.32;84.13;99648.88;5120678;27;20347;-57
2023/04/12 10:16:14;;;;;;;21.27;10.93;;;;;;;11.18;84.85;99651.00;5102807;28;20055;-57
2023/04/12 10:18:45;;;;;;;24.50;10.52;;;;;;;11.12;81.54;99655.06;5093296;28;20019;-57
2023/04/12 10:21:11;;;;;;;23.73;10.48;;;;;;;11.06;80.97;99651.09;5105627;28;20040;-58
2023/04/12 10:23:36;;;;;;;23.10;9.82;;;;;;;10.83;82.43;99636.22;5114615;27;20019;-57
2023/04/12 10:26:03;;;;;;;27.10;10.70;;;;;;;10.85;80.75;99640.44;5107478;28;20041;-57
2023/04/12 10:28:29;;;;;;;24.58;11.32;;;;;;;10.96;81.66;99650.16;5094119;28;20028;-58
2023/04/12 10:30:58;;;;;;;30.02;10.93;;;;;;;10.91;82.62;99642.59;5086646;28;20121;-58
2023/04/12 10:33:29;;;;;;;25.03;10.17;;;;;;;10.89;77.64;99655.16;5095765;28;20467;-58
2023/04/12 10:36:02;;;;;;;20.58;8.82;;;;;;;10.80;72.81;99660.41;5105899;28;20391;-58
2023/04/12 10:38:31;;;;;;;23.80;9.07;;;;;;;10.68;74.03;99660.44;5112162;28;20031;-58
2023/04/12 10:41:09;;;;;;;19.13;9.05;;;;;;;10.62;71.54;99671.59;5106142;28;20028;-58
2023/04/12 10:43:34;;;;;;;22.70;9.45;;;;;;;10.50;74.36;99666.41;5110339;28;20023;-58
2023/04/12 10:46:03;;;;;;;19.55;9.30;;;;;;;10.28;74.31;99672.66;5110220;28;20046;-57
2023/04/12 10:48:35;;;;;;;23.92;9.60;;;;;;;10.19;78.35;99680.34;5109894;28;20050;-58
2023/04/12 10:53:14;;;;;;;23.60;9.70;;;;;;;9.92;83.83;99671.94;5086394;27;1292658;-56
2023/04/12 10:55:44;;;;;;;20.10;9.80;;;;;;;9.88;83.62;99663.38;5113304;28;20519;-57
2023/04/12 10:58:27;;;;;;;33.25;10.77;;;;;;;9.97;84.44;99661.78;5114712;28;20849;-57
2023/04/12 11:00:59;;;;;;;21.52;11.00;;;;;;;10.08;89.34;99666.25;5127826;28;20444;-57
2023/04/12 11:03:26;;;;;;;27.88;11.57;;;;;;;10.10;88.37;99675.78;5121151;27;20034;-57
2023/04/12 11:06:03;;;;;;;27.17;13.00;;;;;;;10.08;88.39;99661.75;5109336;28;20134;-56
2023/04/12 11:08:29;;;;;;;28.88;12.85;;;;;;;10.24;91.51;99670.22;5108165;28;20023;-57
2023/04/12 11:11:02;;;;;;;30.58;12.55;;;;;;;10.26;91.54;99674.53;5108670;28;20019;-56
2023/04/12 11:13:33;;;;;;;31.30;12.55;;;;;;;10.27;92.25;99676.28;5108991;28;20027;-56
2023/04/12 11:16:04;;;;;;;24.88;12.55;;;;;;;10.35;91.79;99679.13;5111988;28;20102;-56
2023/04/12 11:18:29;;;;;;;27.08;12.32;;;;;;;10.27;91.31;99684.25;5109797;28;20066;-56
2023/04/12 11:20:57;;;;;;;27.23;12.57;;;;;;;10.31;90.33;99686.53;5115576;28;20077;-56
2023/04/12 11:23:22;;;;;;;31.90;12.15;;;;;;;10.37;92.28;99678.06;5116503;28;20111;-56
2023/04/12 11:25:54;;;;;;;24.30;11.43;;;;;;;10.41;91.72;99665.34;5123958;28;20122;-56
2023/04/12 11:28:20;;;;;;;24.85;10.63;;;;;;;10.35;89.82;99665.84;5115902;28;20019;-56
2023/04/12 11:30:55;;;;;;;27.27;11.25;;;;;;;10.39;89.00;99660.19;5107562;28;20075;-56
2023/04/12 11:33:39;;;;;;;26.42;10.50;;;;;;;10.58;88.13;99671.97;5109899;28;20069;-56